sensor_id;sensor_type;location;lat;lon;timestamp;pressure;altitude;pressure_sealevel;temperature;humidity
79707;BME280;69200;53.612;-2.416;2023-11-21T00:01:39;100079.22;;;8.12;94.23
79707;BME280;69200;53.612;-2.416;2023-11-21T00:04:05;100085.94;;;8.03;94.95
79707;BME280;69200;53.612;-2.416;2023-11-21T00:06:32;100080.69;;;8.08;94.94
79707;BME280;69200;53.612;-2.416;2023-11-21T00:08:58;100080.53;;;8.03;96.35
79707;BME280;69200;53.612;-2.416;2023-11-21T00:11:23;100085.53;;;7.99;95.47
79707;BME280;69200;53.612;-2.416;2023-11-21T00:13:50;100090.78;;;7.94;95.59
79707;BME280;69200;53.612;-2.416;2023-11-21T00:16:15;100091.84;;;7.87;96.10
79707;BME280;69200;53.612;-2.416;2023-11-21T00:18:41;100105.13;;;7.88;96.95
79707;BME280;69200;53.612;-2.416;2023-11-21T00:21:06;100106.00;;;7.82;97.22
79707;BME280;69200;53.612;-2.416;2023-11-21T00:23:32;100098.69;;;7.89;97.77
79707;BME280;69200;53.612;-2.416;2023-11-21T00:25:57;100107.44;;;7.84;98.09
79707;BME280;69200;53.612;-2.416;2023-11-21T00:28:23;100094.75;;;7.85;97.61
79707;BME280;69200;53.612;-2.416;2023-11-21T00:30:48;100110.56;;;7.81;98.03
79707;BME280;69200;53.612;-2.416;2023-11-21T00:33:13;100118.69;;;7.75;98.06
79707;BME280;69200;53.612;-2.416;2023-11-21T00:35:39;100134.09;;;7.74;98.14
79707;BME280;69200;53.612;-2.416;2023-11-21T00:38:04;100129.50;;;7.75;97.72
79707;BME280;69200;53.612;-2.416;2023-11-21T00:40:29;100135.09;;;7.80;97.47
79707;BME280;69200;53.612;-2.416;2023-11-21T00:42:55;100142.34;;;7.86;96.42
79707;BME280;69200;53.612;-2.416;2023-11-21T00:45:21;100145.06;;;7.86;96.27
79707;BME280;69200;53.612;-2.416;2023-11-21T00:47:46;100148.16;;;7.83;96.53
79707;BME280;69200;53.612;-2.416;2023-11-21T00:50:12;100146.03;;;7.92;96.40
79707;BME280;69200;53.612;-2.416;2023-11-21T00:52:37;100160.81;;;7.89;95.29
79707;BME280;69200;53.612;-2.416;2023-11-21T00:55:04;100155.63;;;7.88;95.80
79707;BME280;69200;53.612;-2.416;2023-11-21T00:57:29;100153.31;;;7.91;96.30
79707;BME280;69200;53.612;-2.416;2023-11-21T00:59:55;100154.56;;;7.95;95.78
79707;BME280;69200;53.612;-2.416;2023-11-21T01:02:20;100161.66;;;7.90;95.60
79707;BME280;69200;53.612;-2.416;2023-11-21T01:04:46;100163.53;;;7.89;96.21
79707;BME280;69200;53.612;-2.416;2023-11-21T01:07:12;100176.59;;;7.92;96.26
79707;BME280;69200;53.612;-2.416;2023-11-21T01:09:38;100176.22;;;7.89;95.68
79707;BME280;69200;53.612;-2.416;2023-11-21T01:12:04;100182.44;;;7.89;95.57
79707;BME280;69200;53.612;-2.416;2023-11-21T01:14:29;100176.22;;;7.82;95.30
79707;BME280;69200;53.612;-2.416;2023-11-21T01:16:55;100177.50;;;7.79;94.79
79707;BME280;69200;53.612;-2.416;2023-11-21T01:19:20;100184.78;;;7.79;95.90
79707;BME280;69200;53.612;-2.416;2023-11-21T01:21:45;100186.66;;;7.78;95.63
79707;BME280;69200;53.612;-2.416;2023-11-21T01:24:12;100184.13;;;7.77;95.35
79707;BME280;69200;53.612;-2.416;2023-11-21T01:26:37;100192.47;;;7.75;94.97
79707;BME280;69200;53.612;-2.416;2023-11-21T01:29:03;100181.66;;;7.75;94.45
79707;BME280;69200;53.612;-2.416;2023-11-21T01:31:28;100208.25;;;7.78;94.58
79707;BME280;69200;53.612;-2.416;2023-11-21T01:33:55;100192.44;;;7.82;94.35
79707;BME280;69200;53.612;-2.416;2023-11-21T01:36:21;100197.00;;;7.81;93.91
79707;BME280;69200;53.612;-2.416;2023-11-21T01:38:46;100189.53;;;7.77;94.51
79707;BME280;69200;53.612;-2.416;2023-11-21T01:41:13;100200.75;;;7.80;93.56
79707;BME280;69200;53.612;-2.416;2023-11-21T01:43:39;100194.13;;;7.76;93.87
79707;BME280;69200;53.612;-2.416;2023-11-21T01:46:05;100188.31;;;7.73;93.09
79707;BME280;69200;53.612;-2.416;2023-11-21T01:48:31;100190.44;;;7.64;92.69
79707;BME280;69200;53.612;-2.416;2023-11-21T01:50:58;100182.34;;;7.57;92.97
79707;BME280;69200;53.612;-2.416;2023-11-21T01:53:26;100203.72;;;7.59;92.25
79707;BME280;69200;53.612;-2.416;2023-11-21T01:55:55;100198.16;;;7.54;91.62
79707;BME280;69200;53.612;-2.416;2023-11-21T01:58:20;100214.75;;;7.57;91.80
79707;BME280;69200;53.612;-2.416;2023-11-21T02:00:46;100218.28;;;7.58;91.22
79707;BME280;69200;53.612;-2.416;2023-11-21T02:03:14;100203.56;;;7.54;91.25
79707;BME280;69200;53.612;-2.416;2023-11-21T02:05:40;100206.66;;;7.51;90.89
79707;BME280;69200;53.612;-2.416;2023-11-21T02:08:05;100209.16;;;7.46;90.56
79707;BME280;69200;53.612;-2.416;2023-11-21T02:10:31;100199.44;;;7.38;91.95
79707;BME280;69200;53.612;-2.416;2023-11-21T02:12:57;100201.72;;;7.35;91.89
79707;BME280;69200;53.612;-2.416;2023-11-21T02:15:23;100210.47;;;7.30;92.11
79707;BME280;69200;53.612;-2.416;2023-11-21T02:17:52;100205.28;;;7.22;92.05
79707;BME280;69200;53.612;-2.416;2023-11-21T02:20:21;100210.69;;;7.22;91.66
79707;BME280;69200;53.612;-2.416;2023-11-21T02:22:53;100232.44;;;7.20;91.93
79707;BME280;69200;53.612;-2.416;2023-11-21T02:25:24;100229.16;;;7.18;91.76
79707;BME280;69200;53.612;-2.416;2023-11-21T02:27:49;100237.03;;;7.20;91.76
79707;BME280;69200;53.612;-2.416;2023-11-21T02:30:16;100241.59;;;7.19;91.69
79707;BME280;69200;53.612;-2.416;2023-11-21T02:32:42;100250.94;;;7.23;90.34
79707;BME280;69200;53.612;-2.416;2023-11-21T02:35:08;100257.56;;;7.34;89.92
79707;BME280;69200;53.612;-2.416;2023-11-21T02:37:34;100261.31;;;7.33;90.79
79707;BME280;69200;53.612;-2.416;2023-11-21T02:40:01;100262.16;;;7.27;90.78
79707;BME280;69200;53.612;-2.416;2023-11-21T02:42:29;100263.59;;;7.29;90.92
79707;BME280;69200;53.612;-2.416;2023-11-21T02:44:54;100271.91;;;7.35;91.71
79707;BME280;69200;53.612;-2.416;2023-11-21T02:47:20;100263.19;;;7.33;91.30
79707;BME280;69200;53.612;-2.416;2023-11-21T02:49:45;100274.59;;;7.35;90.09
79707;BME280;69200;53.612;-2.416;2023-11-21T02:52:10;100278.13;;;7.35;90.63
79707;BME280;69200;53.612;-2.416;2023-11-21T02:54:36;100278.94;;;7.29;90.96
79707;BME280;69200;53.612;-2.416;2023-11-21T02:57:02;100291.00;;;7.33;90.95
79707;BME280;69200;53.612;-2.416;2023-11-21T02:59:27;100302.03;;;7.38;91.39
79707;BME280;69200;53.612;-2.416;2023-11-21T03:01:53;100299.72;;;7.42;91.13
79707;BME280;69200;53.612;-2.416;2023-11-21T03:04:18;100301.81;;;7.46;90.87
79707;BME280;69200;53.612;-2.416;2023-11-21T03:06:45;100306.34;;;7.52;91.91
79707;BME280;69200;53.612;-2.416;2023-11-21T03:09:11;100314.25;;;7.47;91.83
79707;BME280;69200;53.612;-2.416;2023-11-21T03:11:39;100286.44;;;7.47;93.46
79707;BME280;69200;53.612;-2.416;2023-11-21T03:14:05;100302.00;;;7.51;93.31
79707;BME280;69200;53.612;-2.416;2023-11-21T03:16:32;100297.84;;;7.55;93.68
79707;BME280;69200;53.612;-2.416;2023-11-21T03:18:57;100303.66;;;7.52;92.21
79707;BME280;69200;53.612;-2.416;2023-11-21T03:21:24;100318.63;;;7.55;91.64
79707;BME280;69200;53.612;-2.416;2023-11-21T03:23:50;100316.75;;;7.49;92.11
79707;BME280;69200;53.612;-2.416;2023-11-21T03:26:15;100313.00;;;7.50;91.49
79707;BME280;69200;53.612;-2.416;2023-11-21T03:28:41;100318.00;;;7.46;91.40
79707;BME280;69200;53.612;-2.416;2023-11-21T03:31:07;100328.38;;;7.49;91.73
79707;BME280;69200;53.612;-2.416;2023-11-21T03:33:34;100327.34;;;7.50;92.47
79707;BME280;69200;53.612;-2.416;2023-11-21T03:36:00;100330.03;;;7.57;92.46
79707;BME280;69200;53.612;-2.416;2023-11-21T03:38:26;100344.97;;;7.60;92.90
79707;BME280;69200;53.612;-2.416;2023-11-21T03:40:51;100343.94;;;7.61;92.64
79707;BME280;69200;53.612;-2.416;2023-11-21T03:43:16;100348.31;;;7.62;92.86
79707;BME280;69200;53.612;-2.416;2023-11-21T03:45:42;100348.31;;;7.62;91.53
79707;BME280;69200;53.612;-2.416;2023-11-21T03:48:07;100344.16;;;7.59;89.94
79707;BME280;69200;53.612;-2.416;2023-11-21T03:50:34;100352.03;;;7.61;90.09
79707;BME280;69200;53.612;-2.416;2023-11-21T03:52:59;100357.44;;;7.61;89.97
79707;BME280;69200;53.612;-2.416;2023-11-21T03:55:24;100354.13;;;7.58;90.17
79707;BME280;69200;53.612;-2.416;2023-11-21T03:57:50;100363.88;;;7.60;90.66
79707;BME280;69200;53.612;-2.416;2023-11-21T04:00:17;100365.34;;;7.55;90.59
79707;BME280;69200;53.612;-2.416;2023-11-21T04:02:42;100370.94;;;7.61;90.83
79707;BME280;69200;53.612;-2.416;2023-11-21T04:05:08;100381.34;;;7.64;91.70
79707;BME280;69200;53.612;-2.416;2023-11-21T04:07:34;100376.78;;;7.64;92.54
79707;BME280;69200;53.612;-2.416;2023-11-21T04:10:00;100375.72;;;7.58;92.55
79707;BME280;69200;53.612;-2.416;2023-11-21T04:12:25;100385.31;;;7.54;93.69
79707;BME280;69200;53.612;-2.416;2023-11-21T04:14:51;100374.91;;;7.51;93.19
79707;BME280;69200;53.612;-2.416;2023-11-21T04:17:19;100379.91;;;7.54;92.23
79707;BME280;69200;53.612;-2.416;2023-11-21T04:19:45;100384.88;;;7.57;91.24
79707;BME280;69200;53.612;-2.416;2023-11-21T04:22:12;100386.97;;;7.55;90.50
79707;BME280;69200;53.612;-2.416;2023-11-21T04:24:37;100395.06;;;7.55;91.30
79707;BME280;69200;53.612;-2.416;2023-11-21T04:27:02;100396.94;;;7.48;91.87
79707;BME280;69200;53.612;-2.416;2023-11-21T04:29:28;100401.88;;;7.45;91.51
79707;BME280;69200;53.612;-2.416;2023-11-21T04:31:53;100405.63;;;7.44;92.00
79707;BME280;69200;53.612;-2.416;2023-11-21T04:34:19;100402.31;;;7.35;92.33
79707;BME280;69200;53.612;-2.416;2023-11-21T04:36:44;100415.41;;;7.38;92.91
79707;BME280;69200;53.612;-2.416;2023-11-21T04:39:09;100404.59;;;7.38;93.00
79707;BME280;69200;53.612;-2.416;2023-11-21T04:41:35;100413.09;;;7.35;93.66
79707;BME280;69200;53.612;-2.416;2023-11-21T04:44:01;100424.72;;;7.29;93.55
79707;BME280;69200;53.612;-2.416;2023-11-21T04:46:27;100424.31;;;7.25;93.64
79707;BME280;69200;53.612;-2.416;2023-11-21T04:48:52;100423.25;;;7.26;93.84
79707;BME280;69200;53.612;-2.416;2023-11-21T04:51:18;100425.09;;;7.19;94.40
79707;BME280;69200;53.612;-2.416;2023-11-21T04:53:44;100420.97;;;7.17;95.10
79707;BME280;69200;53.612;-2.416;2023-11-21T04:56:09;100430.31;;;7.14;95.37
79707;BME280;69200;53.612;-2.416;2023-11-21T04:58:34;100434.22;;;7.12;95.23
79707;BME280;69200;53.612;-2.416;2023-11-21T05:01:00;100441.69;;;7.10;95.95
79707;BME280;69200;53.612;-2.416;2023-11-21T05:03:26;100438.75;;;7.05;96.35
79707;BME280;69200;53.612;-2.416;2023-11-21T05:05:51;100456.03;;;7.10;96.30
79707;BME280;69200;53.612;-2.416;2023-11-21T05:08:16;100468.09;;;7.14;95.28
79707;BME280;69200;53.612;-2.416;2023-11-21T05:10:42;100476.53;;;7.05;95.99
79707;BME280;69200;53.612;-2.416;2023-11-21T05:13:07;100482.00;;;7.18;97.76
79707;BME280;69200;53.612;-2.416;2023-11-21T05:15:36;100485.53;;;7.18;97.03
79707;BME280;69200;53.612;-2.416;2023-11-21T05:18:03;100480.72;;;7.14;98.21
79707;BME280;69200;53.612;-2.416;2023-11-21T05:20:28;100486.16;;;7.27;98.37
79707;BME280;69200;53.612;-2.416;2023-11-21T05:22:53;100486.97;;;7.14;96.39
79707;BME280;69200;53.612;-2.416;2023-11-21T05:25:20;100479.06;;;7.13;98.30
79707;BME280;69200;53.612;-2.416;2023-11-21T05:27:46;100488.06;;;7.33;96.17
79707;BME280;69200;53.612;-2.416;2023-11-21T05:30:13;100485.38;;;7.33;94.58
79707;BME280;69200;53.612;-2.416;2023-11-21T05:32:40;100488.06;;;7.33;95.82
79707;BME280;69200;53.612;-2.416;2023-11-21T05:35:07;100493.03;;;7.36;94.36
79707;BME280;69200;53.612;-2.416;2023-11-21T05:37:37;100484.75;;;7.31;94.37
79707;BME280;69200;53.612;-2.416;2023-11-21T05:40:04;100492.84;;;7.31;94.42
79707;BME280;69200;53.612;-2.416;2023-11-21T05:42:35;100484.31;;;7.34;94.54
79707;BME280;69200;53.612;-2.416;2023-11-21T05:45:00;100497.41;;;7.31;94.79
79707;BME280;69200;53.612;-2.416;2023-11-21T05:47:41;100491.56;;;7.27;94.06
79707;BME280;69200;53.612;-2.416;2023-11-21T05:50:07;100506.53;;;7.29;93.41
79707;BME280;69200;53.612;-2.416;2023-11-21T05:52:36;100504.44;;;7.25;93.30
79707;BME280;69200;53.612;-2.416;2023-11-21T05:55:02;100485.72;;;7.17;93.47
79707;BME280;69200;53.612;-2.416;2023-11-21T05:57:27;100514.63;;;7.23;92.80
79707;BME280;69200;53.612;-2.416;2023-11-21T05:59:53;100515.81;;;7.14;93.27
79707;BME280;69200;53.612;-2.416;2023-11-21T06:02:18;100518.34;;;7.22;92.37
79707;BME280;69200;53.612;-2.416;2023-11-21T06:04:44;100529.31;;;7.20;92.26
79707;BME280;69200;53.612;-2.416;2023-11-21T06:07:09;100524.75;;;7.21;92.46
79707;BME280;69200;53.612;-2.416;2023-11-21T06:09:35;100539.28;;;7.20;91.86
79707;BME280;69200;53.612;-2.416;2023-11-21T06:12:00;100547.19;;;7.21;91.77
79707;BME280;69200;53.612;-2.416;2023-11-21T06:14:26;100556.16;;;7.22;91.20
79707;BME280;69200;53.612;-2.416;2023-11-21T06:16:51;100555.50;;;7.20;91.73
79707;BME280;69200;53.612;-2.416;2023-11-21T06:19:17;100562.13;;;7.17;91.70
79707;BME280;69200;53.612;-2.416;2023-11-21T06:21:46;100571.66;;;7.13;92.06
79707;BME280;69200;53.612;-2.416;2023-11-21T06:24:12;100577.25;;;7.12;92.29
79707;BME280;69200;53.612;-2.416;2023-11-21T06:26:37;100574.72;;;7.04;92.16
79707;BME280;69200;53.612;-2.416;2023-11-21T06:29:03;100580.72;;;7.06;92.13
79707;BME280;69200;53.612;-2.416;2023-11-21T06:31:29;100583.44;;;6.99;92.48
79707;BME280;69200;53.612;-2.416;2023-11-21T06:33:55;100581.31;;;6.94;92.92
79707;BME280;69200;53.612;-2.416;2023-11-21T06:36:20;100585.00;;;6.87;93.69
79707;BME280;69200;53.612;-2.416;2023-11-21T06:38:46;100585.59;;;6.82;93.40
79707;BME280;69200;53.612;-2.416;2023-11-21T06:41:11;100595.22;;;6.91;92.82
79707;BME280;69200;53.612;-2.416;2023-11-21T06:43:40;100582.25;;;6.80;93.02
79707;BME280;69200;53.612;-2.416;2023-11-21T06:46:05;100598.53;;;6.93;92.35
79707;BME280;69200;53.612;-2.416;2023-11-21T06:48:31;100604.75;;;6.94;92.04
79707;BME280;69200;53.612;-2.416;2023-11-21T06:50:56;100603.50;;;6.96;92.21
79707;BME280;69200;53.612;-2.416;2023-11-21T06:53:21;100613.88;;;6.93;92.96
79707;BME280;69200;53.612;-2.416;2023-11-21T06:55:47;100614.09;;;6.91;93.79
79707;BME280;69200;53.612;-2.416;2023-11-21T06:58:12;100629.81;;;6.88;93.27
79707;BME280;69200;53.612;-2.416;2023-11-21T07:00:39;100635.41;;;6.86;93.46
79707;BME280;69200;53.612;-2.416;2023-11-21T07:03:04;100640.75;;;6.80;94.06
79707;BME280;69200;53.612;-2.416;2023-11-21T07:05:30;100651.59;;;6.86;94.54
79707;BME280;69200;53.612;-2.416;2023-11-21T07:07:56;100665.09;;;6.86;96.24
79707;BME280;69200;53.612;-2.416;2023-11-21T07:10:21;100676.56;;;6.95;94.31
79707;BME280;69200;53.612;-2.416;2023-11-21T07:12:46;100680.34;;;7.00;92.97
79707;BME280;69200;53.612;-2.416;2023-11-21T07:15:12;100678.69;;;6.99;93.26
79707;BME280;69200;53.612;-2.416;2023-11-21T07:17:38;100687.41;;;7.01;92.37
79707;BME280;69200;53.612;-2.416;2023-11-21T07:20:05;100694.06;;;7.06;91.99
79707;BME280;69200;53.612;-2.416;2023-11-21T07:22:31;100692.88;;;7.08;91.16
79707;BME280;69200;53.612;-2.416;2023-11-21T07:24:57;100687.69;;;7.13;91.19
79707;BME280;69200;53.612;-2.416;2023-11-21T07:27:22;100697.28;;;7.16;90.07
79707;BME280;69200;53.612;-2.416;2023-11-21T07:29:48;100695.41;;;7.16;90.27
79707;BME280;69200;53.612;-2.416;2023-11-21T07:32:16;100706.63;;;7.20;90.05
79707;BME280;69200;53.612;-2.416;2023-11-21T07:34:41;100710.22;;;7.27;89.23
79707;BME280;69200;53.612;-2.416;2023-11-21T07:37:07;100719.59;;;7.31;89.35
79707;BME280;69200;53.612;-2.416;2023-11-21T07:39:34;100744.88;;;7.23;89.87
79707;BME280;69200;53.612;-2.416;2023-11-21T07:41:59;100743.22;;;7.29;89.25
79707;BME280;69200;53.612;-2.416;2023-11-21T07:44:25;100758.44;;;7.30;89.20
79707;BME280;69200;53.612;-2.416;2023-11-21T07:46:51;100758.66;;;7.35;89.22
79707;BME280;69200;53.612;-2.416;2023-11-21T07:49:16;100778.19;;;7.37;89.51
79707;BME280;69200;53.612;-2.416;2023-11-21T07:51:45;100787.72;;;7.33;89.44
79707;BME280;69200;53.612;-2.416;2023-11-21T07:54:11;100777.50;;;7.28;89.10
79707;BME280;69200;53.612;-2.416;2023-11-21T07:56:36;100773.75;;;7.23;90.19
79707;BME280;69200;53.612;-2.416;2023-11-21T07:59:01;100784.53;;;7.23;89.85
79707;BME280;69200;53.612;-2.416;2023-11-21T08:01:27;100778.63;;;7.13;89.95
79707;BME280;69200;53.612;-2.416;2023-11-21T08:03:54;100786.97;;;7.18;89.20
79707;BME280;69200;53.612;-2.416;2023-11-21T08:06:22;100788.97;;;7.09;89.84
79707;BME280;69200;53.612;-2.416;2023-11-21T08:08:48;100795.84;;;7.12;89.60
79707;BME280;69200;53.612;-2.416;2023-11-21T08:11:13;100805.88;;;7.18;89.69
79707;BME280;69200;53.612;-2.416;2023-11-21T08:13:38;100819.09;;;7.13;89.53
79707;BME280;69200;53.612;-2.416;2023-11-21T08:16:04;100844.06;;;7.15;89.86
79707;BME280;69200;53.612;-2.416;2023-11-21T08:18:30;100839.66;;;7.14;89.54
79707;BME280;69200;53.612;-2.416;2023-11-21T08:20:56;100851.94;;;7.16;89.55
79707;BME280;69200;53.612;-2.416;2023-11-21T08:23:22;100859.28;;;7.22;89.42
79707;BME280;69200;53.612;-2.416;2023-11-21T08:25:51;100860.28;;;7.21;89.44
79707;BME280;69200;53.612;-2.416;2023-11-21T08:28:17;100847.38;;;7.17;89.04
79707;BME280;69200;53.612;-2.416;2023-11-21T08:30:42;100863.38;;;7.18;89.21
79707;BME280;69200;53.612;-2.416;2023-11-21T08:33:08;100869.59;;;7.19;89.29
79707;BME280;69200;53.612;-2.416;2023-11-21T08:35:34;100861.50;;;7.19;89.58
79707;BME280;69200;53.612;-2.416;2023-11-21T08:37:59;100866.72;;;7.20;89.75
79707;BME280;69200;53.612;-2.416;2023-11-21T08:40:25;100873.75;;;7.15;89.68
79707;BME280;69200;53.612;-2.416;2023-11-21T08:42:51;100869.34;;;7.14;89.36
79707;BME280;69200;53.612;-2.416;2023-11-21T08:45:18;100873.06;;;7.13;89.49
79707;BME280;69200;53.612;-2.416;2023-11-21T08:47:44;100890.41;;;7.04;88.62
79707;BME280;69200;53.612;-2.416;2023-11-21T08:50:10;100884.47;;;7.08;88.11
79707;BME280;69200;53.612;-2.416;2023-11-21T08:52:37;100889.47;;;7.11;88.32
79707;BME280;69200;53.612;-2.416;2023-11-21T08:55:04;100896.09;;;7.09;87.69
79707;BME280;69200;53.612;-2.416;2023-11-21T08:57:36;100897.75;;;7.10;87.09
79707;BME280;69200;53.612;-2.416;2023-11-21T09:00:03;100905.66;;;7.11;87.14
79707;BME280;69200;53.612;-2.416;2023-11-21T09:02:32;100906.50;;;7.12;86.19
79707;BME280;69200;53.612;-2.416;2023-11-21T09:04:59;100907.13;;;7.14;85.36
79707;BME280;69200;53.612;-2.416;2023-11-21T09:07:24;100910.50;;;7.16;85.60
79707;BME280;69200;53.612;-2.416;2023-11-21T09:09:49;100924.50;;;7.26;85.38
79707;BME280;69200;53.612;-2.416;2023-11-21T09:12:16;100923.09;;;7.30;84.96
79707;BME280;69200;53.612;-2.416;2023-11-21T09:14:42;100926.03;;;7.35;84.78
79707;BME280;69200;53.612;-2.416;2023-11-21T09:17:09;100931.19;;;7.30;83.03
79707;BME280;69200;53.612;-2.416;2023-11-21T09:19:38;100934.25;;;7.27;83.46
79707;BME280;69200;53.612;-2.416;2023-11-21T09:22:04;100926.88;;;7.36;82.53
79707;BME280;69200;53.612;-2.416;2023-11-21T09:24:31;100930.22;;;7.38;83.01
79707;BME280;69200;53.612;-2.416;2023-11-21T09:26:56;100942.75;;;7.45;82.38
79707;BME280;69200;53.612;-2.416;2023-11-21T09:29:22;100934.66;;;7.45;82.68
79707;BME280;69200;53.612;-2.416;2023-11-21T09:31:47;100926.38;;;7.47;82.77
79707;BME280;69200;53.612;-2.416;2023-11-21T09:34:13;100923.16;;;7.58;82.27
79707;BME280;69200;53.612;-2.416;2023-11-21T09:36:38;100928.94;;;7.55;81.38
79707;BME280;69200;53.612;-2.416;2023-11-21T09:39:04;100932.22;;;7.50;82.06
79707;BME280;69200;53.612;-2.416;2023-11-21T09:44:06;100959.91;;;7.59;81.93
79707;BME280;69200;53.612;-2.416;2023-11-21T09:46:37;100960.97;;;7.58;83.35
79707;BME280;69200;53.612;-2.416;2023-11-21T09:49:05;100968.03;;;7.59;82.14
79707;BME280;69200;53.612;-2.416;2023-11-21T09:51:39;100975.38;;;7.65;82.07
79707;BME280;69200;53.612;-2.416;2023-11-21T09:54:07;100984.81;;;7.76;82.59
79707;BME280;69200;53.612;-2.416;2023-11-21T09:56:34;100978.91;;;7.66;81.24
79707;BME280;69200;53.612;-2.416;2023-11-21T09:59:01;100987.00;;;7.66;82.01
79707;BME280;69200;53.612;-2.416;2023-11-21T10:01:32;100983.34;;;7.73;81.55
79707;BME280;69200;53.612;-2.416;2023-11-21T10:03:58;100983.34;;;7.73;81.08
79707;BME280;69200;53.612;-2.416;2023-11-21T10:06:25;100971.50;;;7.74;81.04
79707;BME280;69200;53.612;-2.416;2023-11-21T10:08:53;100980.03;;;7.78;80.29
79707;BME280;69200;53.612;-2.416;2023-11-21T10:11:19;100968.91;;;7.88;80.94
79707;BME280;69200;53.612;-2.416;2023-11-21T10:13:46;100970.53;;;7.82;81.67
79707;BME280;69200;53.612;-2.416;2023-11-21T10:16:14;100988.47;;;7.90;82.03
79707;BME280;69200;53.612;-2.416;2023-11-21T10:18:41;100996.44;;;7.98;83.63
79707;BME280;69200;53.612;-2.416;2023-11-21T10:21:07;101006.88;;;8.29;81.20
79707;BME280;69200;53.612;-2.416;2023-11-21T10:23:34;101007.53;;;8.09;81.89
79707;BME280;69200;53.612;-2.416;2023-11-21T10:26:00;101007.38;;;8.11;79.58
79707;BME280;69200;53.612;-2.416;2023-11-21T10:28:26;101010.25;;;8.09;80.12
79707;BME280;69200;53.612;-2.416;2023-11-21T10:30:51;101011.34;;;8.36;80.53
79707;BME280;69200;53.612;-2.416;2023-11-21T10:33:26;101014.09;;;8.43;79.30
79707;BME280;69200;53.612;-2.416;2023-11-21T10:35:52;101028.81;;;8.40;79.08
79707;BME280;69200;53.612;-2.416;2023-11-21T10:38:20;101028.19;;;8.38;79.46
79707;BME280;69200;53.612;-2.416;2023-11-21T10:40:50;101032.81;;;8.45;79.89
79707;BME280;69200;53.612;-2.416;2023-11-21T10:43:17;101030.22;;;8.64;79.48
79707;BME280;69200;53.612;-2.416;2023-11-21T10:45:43;101030.34;;;8.50;78.50
79707;BME280;69200;53.612;-2.416;2023-11-21T10:48:10;101029.47;;;8.21;79.96
79707;BME280;69200;53.612;-2.416;2023-11-21T10:50:37;101026.31;;;8.39;79.55
79707;BME280;69200;53.612;-2.416;2023-11-21T10:53:04;101023.66;;;8.46;81.46
79707;BME280;69200;53.612;-2.416;2023-11-21T10:55:30;101030.63;;;8.61;81.24
79707;BME280;69200;53.612;-2.416;2023-11-21T10:57:58;101031.09;;;8.72;81.97
79707;BME280;69200;53.612;-2.416;2023-11-21T11:00:24;101031.81;;;8.87;79.12
79707;BME280;69200;53.612;-2.416;2023-11-21T11:02:52;101038.91;;;8.88;78.57
79707;BME280;69200;53.612;-2.416;2023-11-21T11:05:20;101025.75;;;8.78;78.63
79707;BME280;69200;53.612;-2.416;2023-11-21T11:07:48;101027.31;;;8.66;78.81
79707;BME280;69200;53.612;-2.416;2023-11-21T11:10:19;101020.84;;;8.60;78.97
79707;BME280;69200;53.612;-2.416;2023-11-21T11:12:48;101026.25;;;8.60;78.64
79707;BME280;69200;53.612;-2.416;2023-11-21T11:15:15;101022.53;;;8.61;79.62
79707;BME280;69200;53.612;-2.416;2023-11-21T11:17:41;101034.03;;;8.70;79.51
79707;BME280;69200;53.612;-2.416;2023-11-21T11:20:08;101038.28;;;8.58;79.07
79707;BME280;69200;53.612;-2.416;2023-11-21T11:22:42;101047.44;;;8.50;79.32
79707;BME280;69200;53.612;-2.416;2023-11-21T11:33:29;101034.63;;;8.37;81.30
79707;BME280;69200;53.612;-2.416;2023-11-21T11:36:14;101038.28;;;8.30;81.03
79707;BME280;69200;53.612;-2.416;2023-11-21T11:38:46;101034.94;;;8.28;81.99
79707;BME280;69200;53.612;-2.416;2023-11-21T11:41:11;101029.75;;;8.33;81.80
79707;BME280;69200;53.612;-2.416;2023-11-21T11:43:37;101049.47;;;8.48;80.94
79707;BME280;69200;53.612;-2.416;2023-11-21T11:46:10;101050.66;;;8.67;80.40
79707;BME280;69200;53.612;-2.416;2023-11-21T11:48:39;101046.22;;;8.94;80.06
79707;BME280;69200;53.612;-2.416;2023-11-21T11:51:07;101050.19;;;8.98;77.30
79707;BME280;69200;53.612;-2.416;2023-11-21T11:53:36;101047.97;;;9.08;77.19
79707;BME280;69200;53.612;-2.416;2023-11-21T11:56:24;101052.19;;;9.17;77.15
79707;BME280;69200;53.612;-2.416;2023-11-21T11:58:52;101058.63;;;9.16;75.95
79707;BME280;69200;53.612;-2.416;2023-11-21T12:01:19;101058.00;;;8.80;76.30
79707;BME280;69200;53.612;-2.416;2023-11-21T12:03:44;101057.28;;;8.64;76.46
79707;BME280;69200;53.612;-2.416;2023-11-21T12:06:10;101067.69;;;8.61;77.54
79707;BME280;69200;53.612;-2.416;2023-11-21T12:08:37;101073.66;;;8.56;76.11
79707;BME280;69200;53.612;-2.416;2023-11-21T12:11:03;101069.50;;;8.54;75.97
79707;BME280;69200;53.612;-2.416;2023-11-21T12:13:29;101062.22;;;8.54;76.03
79707;BME280;69200;53.612;-2.416;2023-11-21T12:15:55;101062.28;;;8.61;75.20
79707;BME280;69200;53.612;-2.416;2023-11-21T12:18:21;101069.16;;;8.63;75.32
79707;BME280;69200;53.612;-2.416;2023-11-21T12:20:47;101072.38;;;8.80;75.83
79707;BME280;69200;53.612;-2.416;2023-11-21T12:23:15;101075.75;;;8.82;75.38
79707;BME280;69200;53.612;-2.416;2023-11-21T12:25:42;101078.16;;;8.71;75.71
79707;BME280;69200;53.612;-2.416;2023-11-21T12:28:08;101076.69;;;8.68;75.83
79707;BME280;69200;53.612;-2.416;2023-11-21T12:30:34;101089.28;;;8.54;76.14
79707;BME280;69200;53.612;-2.416;2023-11-21T12:33:03;101088.22;;;8.55;76.48
79707;BME280;69200;53.612;-2.416;2023-11-21T12:35:33;101087.75;;;8.45;76.55
79707;BME280;69200;53.612;-2.416;2023-11-21T12:38:00;101086.44;;;8.41;77.02
79707;BME280;69200;53.612;-2.416;2023-11-21T12:40:28;101082.72;;;8.42;77.37
79707;BME280;69200;53.612;-2.416;2023-11-21T12:42:55;101091.69;;;8.43;77.85
79707;BME280;69200;53.612;-2.416;2023-11-21T12:45:25;101088.88;;;8.57;77.75
79707;BME280;69200;53.612;-2.416;2023-11-21T12:47:57;101103.94;;;8.66;77.42
79707;BME280;69200;53.612;-2.416;2023-11-21T12:50:30;101100.88;;;8.48;76.33
79707;BME280;69200;53.612;-2.416;2023-11-21T12:53:00;101109.09;;;8.61;77.72
79707;BME280;69200;53.612;-2.416;2023-11-21T12:55:30;101115.47;;;8.54;77.20
79707;BME280;69200;53.612;-2.416;2023-11-21T12:57:55;101117.88;;;8.42;77.06